sensor_id;sensor_type;location;lat;lon;timestamp;P1;durP1;ratioP1;P2;durP2;ratioP2
42666;SDS011;28280;49.646;14.130;2023-02-28T00:10:39;6.55;;;3.40;;
42666;SDS011;28280;49.646;14.130;2023-02-28T00:21:01;6.88;;;3.33;;
42666;SDS011;28280;49.646;14.130;2023-02-28T00:31:22;5.85;;;3.28;;
42666;SDS011;28280;49.646;14.130;2023-02-28T00:41:43;8.45;;;3.80;;
42666;SDS011;28280;49.646;14.130;2023-02-28T00:52:05;5.95;;;3.47;;
42666;SDS011;28280;49.646;14.130;2023-02-28T01:02:26;6.93;;;3.47;;
42666;SDS011;28280;49.646;14.130;2023-02-28T01:12:46;5.75;;;3.60;;
42666;SDS011;28280;49.646;14.130;2023-02-28T01:23:09;8.90;;;3.85;;
42666;SDS011;28280;49.646;14.130;2023-02-28T01:33:30;7.15;;;4.07;;
42666;SDS011;28280;49.646;14.130;2023-02-28T01:43:54;7.82;;;3.72;;
42666;SDS011;28280;49.646;14.130;2023-02-28T01:54:26;6.35;;;3.50;;
42666;SDS011;28280;49.646;14.130;2023-02-28T02:15:24;7.40;;;3.72;;
42666;SDS011;28280;49.646;14.130;2023-02-28T02:47:04;7.20;;;3.97;;
42666;SDS011;28280;49.646;14.130;2023-02-28T02:57:30;6.68;;;3.65;;
42666;SDS011;28280;49.646;14.130;2023-02-28T03:07:56;8.65;;;4.00;;
42666;SDS011;28280;49.646;14.130;2023-02-28T03:18:40;6.65;;;3.80;;
42666;SDS011;28280;49.646;14.130;2023-02-28T03:29:27;7.97;;;3.97;;
42666;SDS011;28280;49.646;14.130;2023-02-28T03:39:55;6.93;;;3.40;;
42666;SDS011;28280;49.646;14.130;2023-02-28T03:50:21;11.55;;;3.70;;
42666;SDS011;28280;49.646;14.130;2023-02-28T04:01:11;7.93;;;4.03;;
42666;SDS011;28280;49.646;14.130;2023-02-28T04:11:37;7.25;;;3.80;;
42666;SDS011;28280;49.646;14.130;2023-02-28T04:22:00;6.70;;;3.92;;
42666;SDS011;28280;49.646;14.130;2023-02-28T04:32:21;5.70;;;3.65;;
42666;SDS011;28280;49.646;14.130;2023-02-28T04:42:43;6.70;;;3.78;;
42666;SDS011;28280;49.646;14.130;2023-02-28T04:53:04;8.18;;;4.22;;
42666;SDS011;28280;49.646;14.130;2023-02-28T05:03:25;9.65;;;4.20;;
42666;SDS011;28280;49.646;14.130;2023-02-28T05:13:47;8.38;;;3.95;;
42666;SDS011;28280;49.646;14.130;2023-02-28T05:24:10;7.35;;;3.90;;
42666;SDS011;28280;49.646;14.130;2023-02-28T05:34:32;8.02;;;4.18;;
42666;SDS011;28280;49.646;14.130;2023-02-28T05:44:54;9.05;;;4.20;;
42666;SDS011;28280;49.646;14.130;2023-02-28T05:55:15;6.35;;;3.60;;
42666;SDS011;28280;49.646;14.130;2023-02-28T06:05:36;7.68;;;4.00;;
42666;SDS011;28280;49.646;14.130;2023-02-28T06:16:02;6.55;;;3.67;;
42666;SDS011;28280;49.646;14.130;2023-02-28T06:26:23;7.40;;;4.15;;
42666;SDS011;28280;49.646;14.130;2023-02-28T06:36:44;8.80;;;4.40;;
42666;SDS011;28280;49.646;14.130;2023-02-28T06:47:06;9.68;;;5.15;;
42666;SDS011;28280;49.646;14.130;2023-02-28T06:57:27;8.20;;;4.63;;
42666;SDS011;28280;49.646;14.130;2023-02-28T07:07:51;9.50;;;4.30;;
42666;SDS011;28280;49.646;14.130;2023-02-28T07:18:13;8.05;;;4.80;;
42666;SDS011;28280;49.646;14.130;2023-02-28T07:28:34;7.18;;;4.35;;
42666;SDS011;28280;49.646;14.130;2023-02-28T07:38:55;7.47;;;4.43;;
42666;SDS011;28280;49.646;14.130;2023-02-28T07:49:16;7.25;;;4.47;;
42666;SDS011;28280;49.646;14.130;2023-02-28T07:59:38;8.88;;;5.18;;
42666;SDS011;28280;49.646;14.130;2023-02-28T08:10:00;7.63;;;4.88;;
42666;SDS011;28280;49.646;14.130;2023-02-28T08:20:22;8.65;;;4.78;;
42666;SDS011;28280;49.646;14.130;2023-02-28T08:30:44;9.95;;;4.65;;
42666;SDS011;28280;49.646;14.130;2023-02-28T08:41:07;9.60;;;4.85;;
42666;SDS011;28280;49.646;14.130;2023-02-28T08:51:30;12.73;;;5.45;;
42666;SDS011;28280;49.646;14.130;2023-02-28T09:01:52;9.40;;;4.95;;
42666;SDS011;28280;49.646;14.130;2023-02-28T09:12:13;10.35;;;5.35;;
42666;SDS011;28280;49.646;14.130;2023-02-28T09:22:34;9.15;;;5.30;;
42666;SDS011;28280;49.646;14.130;2023-02-28T09:32:56;7.95;;;5.03;;
42666;SDS011;28280;49.646;14.130;2023-02-28T09:43:17;9.27;;;5.57;;
42666;SDS011;28280;49.646;14.130;2023-02-28T09:53:42;11.90;;;5.50;;
42666;SDS011;28280;49.646;14.130;2023-02-28T10:14:56;8.13;;;5.03;;
42666;SDS011;28280;49.646;14.130;2023-02-28T10:25:24;10.40;;;5.80;;
42666;SDS011;28280;49.646;14.130;2023-02-28T10:35:47;8.20;;;5.18;;
42666;SDS011;28280;49.646;14.130;2023-02-28T10:56:31;10.20;;;6.20;;
42666;SDS011;28280;49.646;14.130;2023-02-28T11:07:37;8.45;;;4.95;;
42666;SDS011;28280;49.646;14.130;2023-02-28T11:17:43;9.43;;;5.15;;
42666;SDS011;28280;49.646;14.130;2023-02-28T11:28:09;9.57;;;5.38;;
42666;SDS011;28280;49.646;14.130;2023-02-28T11:38:47;8.85;;;5.47;;
42666;SDS011;28280;49.646;14.130;2023-02-28T11:49:25;9.40;;;5.13;;
42666;SDS011;28280;49.646;14.130;2023-02-28T12:21:30;9.43;;;5.53;;
42666;SDS011;28280;49.646;14.130;2023-02-28T12:32:22;10.40;;;5.20;;
42666;SDS011;28280;49.646;14.130;2023-02-28T12:42:58;8.18;;;5.43;;
42666;SDS011;28280;49.646;14.130;2023-02-28T12:53:29;8.63;;;5.60;;
42666;SDS011;28280;49.646;14.130;2023-02-28T13:14:38;10.52;;;5.93;;
42666;SDS011;28280;49.646;14.130;2023-02-28T13:24:59;9.60;;;5.40;;
42666;SDS011;28280;49.646;14.130;2023-02-28T13:35:42;8.88;;;5.22;;
42666;SDS011;28280;49.646;14.130;2023-02-28T13:46:08;9.07;;;6.15;;
42666;SDS011;28280;49.646;14.130;2023-02-28T14:07:01;9.68;;;5.18;;
42666;SDS011;28280;49.646;14.130;2023-02-28T14:17:23;9.95;;;5.63;;
42666;SDS011;28280;49.646;14.130;2023-02-28T14:38:43;10.13;;;5.70;;
42666;SDS011;28280;49.646;14.130;2023-02-28T14:49:09;10.65;;;5.82;;
42666;SDS011;28280;49.646;14.130;2023-02-28T14:59:57;11.50;;;6.47;;
42666;SDS011;28280;49.646;14.130;2023-02-28T15:10:26;10.45;;;6.00;;
42666;SDS011;28280;49.646;14.130;2023-02-28T15:20:48;10.60;;;5.65;;
42666;SDS011;28280;49.646;14.130;2023-02-28T15:31:21;10.85;;;5.82;;
42666;SDS011;28280;49.646;14.130;2023-02-28T15:41:46;8.05;;;5.47;;
42666;SDS011;28280;49.646;14.130;2023-02-28T15:52:09;10.10;;;6.60;;
42666;SDS011;28280;49.646;14.130;2023-02-28T16:02:35;10.43;;;5.83;;
42666;SDS011;28280;49.646;14.130;2023-02-28T16:12:58;9.05;;;5.78;;
42666;SDS011;28280;49.646;14.130;2023-02-28T16:23:19;8.32;;;5.30;;
42666;SDS011;28280;49.646;14.130;2023-02-28T16:33:40;9.40;;;5.72;;
42666;SDS011;28280;49.646;14.130;2023-02-28T16:44:01;8.45;;;5.50;;
42666;SDS011;28280;49.646;14.130;2023-02-28T16:54:23;11.13;;;5.68;;
42666;SDS011;28280;49.646;14.130;2023-02-28T17:04:44;8.48;;;5.30;;
42666;SDS011;28280;49.646;14.130;2023-02-28T17:15:06;10.85;;;6.30;;
42666;SDS011;28280;49.646;14.130;2023-02-28T17:25:29;10.07;;;6.35;;
42666;SDS011;28280;49.646;14.130;2023-02-28T17:35:51;10.32;;;5.88;;
42666;SDS011;28280;49.646;14.130;2023-02-28T17:46:16;11.73;;;5.80;;
42666;SDS011;28280;49.646;14.130;2023-02-28T17:56:41;11.18;;;6.05;;
42666;SDS011;28280;49.646;14.130;2023-02-28T18:07:05;10.23;;;6.10;;
42666;SDS011;28280;49.646;14.130;2023-02-28T18:17:28;9.90;;;5.43;;
42666;SDS011;28280;49.646;14.130;2023-02-28T18:27:49;9.27;;;5.65;;
42666;SDS011;28280;49.646;14.130;2023-02-28T18:38:19;10.93;;;6.78;;
42666;SDS011;28280;49.646;14.130;2023-02-28T18:48:41;10.80;;;6.78;;
42666;SDS011;28280;49.646;14.130;2023-02-28T18:59:02;10.90;;;6.07;;
42666;SDS011;28280;49.646;14.130;2023-02-28T19:09:23;11.18;;;6.65;;
42666;SDS011;28280;49.646;14.130;2023-02-28T19:19:45;10.82;;;6.22;;
42666;SDS011;28280;49.646;14.130;2023-02-28T19:30:06;13.10;;;7.38;;
42666;SDS011;28280;49.646;14.130;2023-02-28T19:40:28;12.35;;;6.50;;
42666;SDS011;28280;49.646;14.130;2023-02-28T19:50:50;11.75;;;6.60;;
42666;SDS011;28280;49.646;14.130;2023-02-28T20:01:12;12.07;;;6.88;;
42666;SDS011;28280;49.646;14.130;2023-02-28T20:11:38;11.57;;;7.18;;
42666;SDS011;28280;49.646;14.130;2023-02-28T20:21:59;13.45;;;7.32;;
42666;SDS011;28280;49.646;14.130;2023-02-28T20:32:22;12.70;;;6.78;;
42666;SDS011;28280;49.646;14.130;2023-02-28T20:42:43;13.23;;;7.15;;
42666;SDS011;28280;49.646;14.130;2023-02-28T20:53:04;14.45;;;7.35;;
42666;SDS011;28280;49.646;14.130;2023-02-28T21:03:27;13.50;;;6.95;;
42666;SDS011;28280;49.646;14.130;2023-02-28T21:13:48;14.25;;;7.75;;
42666;SDS011;28280;49.646;14.130;2023-02-28T21:24:15;13.38;;;7.78;;
42666;SDS011;28280;49.646;14.130;2023-02-28T21:34:37;17.27;;;8.23;;
42666;SDS011;28280;49.646;14.130;2023-02-28T21:44:59;14.27;;;7.72;;
42666;SDS011;28280;49.646;14.130;2023-02-28T21:55:21;15.82;;;7.85;;
42666;SDS011;28280;49.646;14.130;2023-02-28T22:05:42;17.23;;;8.98;;
42666;SDS011;28280;49.646;14.130;2023-02-28T22:16:04;15.55;;;8.65;;
42666;SDS011;28280;49.646;14.130;2023-02-28T22:26:26;16.00;;;9.32;;
42666;SDS011;28280;49.646;14.130;2023-02-28T22:36:49;16.38;;;8.70;;
42666;SDS011;28280;49.646;14.130;2023-02-28T22:47:10;20.60;;;10.10;;
42666;SDS011;28280;49.646;14.130;2023-02-28T22:57:31;16.50;;;9.45;;
42666;SDS011;28280;49.646;14.130;2023-02-28T23:07:52;18.23;;;9.18;;
42666;SDS011;28280;49.646;14.130;2023-02-28T23:18:13;18.38;;;9.25;;
42666;SDS011;28280;49.646;14.130;2023-02-28T23:28:35;19.38;;;9.10;;
42666;SDS011;28280;49.646;14.130;2023-02-28T23:38:56;20.00;;;9.20;;
42666;SDS011;28280;49.646;14.130;2023-02-28T23:49:18;17.52;;;9.05;;
42666;SDS011;28280;49.646;14.130;2023-02-28T23:59:39;17.77;;;8.95;;
